createdAt,value
2022-09-13T00:02:51.521Z,17.9
2022-09-13T00:07:51.511Z,21.2
2022-09-13T00:12:51.363Z,21.5
2022-09-13T00:17:51.452Z,21.4
2022-09-13T00:22:51.174Z,16.9
2022-09-13T00:27:51.295Z,13.6
2022-09-13T00:32:51.675Z,9.2
2022-09-13T00:37:51.574Z,9.9
2022-09-13T00:42:51.225Z,7.2
2022-09-13T00:47:51.366Z,7.5
2022-09-13T00:52:51.192Z,9.4
2022-09-13T00:57:51.206Z,7.5
2022-09-13T01:02:51.381Z,7.2
2022-09-13T01:07:51.194Z,7.5
2022-09-13T01:12:51.201Z,7.7
2022-09-13T01:17:51.371Z,7.7
2022-09-13T01:22:51.105Z,4.8
2022-09-13T01:27:51.277Z,4.8
2022-09-13T01:32:51.273Z,4.5
2022-09-13T01:37:51.057Z,5.7
2022-09-13T01:42:52.225Z,7.7
2022-09-13T01:47:51.263Z,6.7
2022-09-13T01:52:51.198Z,5.6
2022-09-13T01:57:51.120Z,5.6
2022-09-13T02:02:51.246Z,7.4
2022-09-13T02:07:51.140Z,6.6
2022-09-13T02:12:51.055Z,7.4
2022-09-13T02:17:51.393Z,8.2
2022-09-13T02:22:51.111Z,8.2
2022-09-13T02:27:50.984Z,8.0
2022-09-13T02:32:51.257Z,9.0
2022-09-13T02:37:51.084Z,12.0
2022-09-13T02:42:51.052Z,13.2
2022-09-13T02:47:51.225Z,13.9
2022-09-13T02:52:51.017Z,16.4
2022-09-13T02:57:51.012Z,17.5
2022-09-13T03:02:51.148Z,19.2
2022-09-13T03:07:50.994Z,20.9
2022-09-13T03:12:50.839Z,24.9
2022-09-13T03:17:50.948Z,22.2
2022-09-13T03:22:51.343Z,22.5
2022-09-13T03:27:50.920Z,23.9
2022-09-13T03:32:51.135Z,23.6
2022-09-13T03:37:51.022Z,21.6
2022-09-13T03:42:50.857Z,23.1
2022-09-13T03:47:50.848Z,22.1
2022-09-13T03:52:51.044Z,22.8
2022-09-13T03:57:50.865Z,22.8
2022-09-13T04:02:50.833Z,20.3
2022-09-13T04:07:50.919Z,21.9
2022-09-13T04:12:50.772Z,20.4
2022-09-13T04:17:50.816Z,23.8
2022-09-13T04:22:51.603Z,21.9
2022-09-13T04:27:50.751Z,23.9
2022-09-13T04:32:50.943Z,21.4
2022-09-13T04:37:50.977Z,23.1
2022-09-13T04:42:50.900Z,21.7
2022-09-13T04:47:50.958Z,21.5
2022-09-13T04:52:51.042Z,20.8
2022-09-13T04:57:50.891Z,18.1
2022-09-13T05:02:50.654Z,21.1
2022-09-13T05:07:51.344Z,19.1
2022-09-13T05:12:50.804Z,17.4
2022-09-13T05:17:51.096Z,18.7
2022-09-13T05:22:50.669Z,18.6
2022-09-13T05:27:50.934Z,19.0
2022-09-13T05:32:50.737Z,18.7
2022-09-13T05:37:50.742Z,21.1
2022-09-13T05:42:50.809Z,21.4
2022-09-13T05:47:50.683Z,21.6
2022-09-13T05:52:50.765Z,23.0
2022-09-13T05:57:51.798Z,22.6
2022-09-13T06:02:51.716Z,22.7
2022-09-13T06:07:50.697Z,25.4
2022-09-13T06:12:50.738Z,21.4
2022-09-13T06:17:51.513Z,22.7
2022-09-13T06:22:50.550Z,23.1
2022-09-13T06:27:50.758Z,24.1
2022-09-13T06:32:50.672Z,30.1
2022-09-13T06:37:50.876Z,25.9
2022-09-13T06:42:50.585Z,26.0
2022-09-13T06:47:50.614Z,28.4
2022-09-13T06:52:50.873Z,27.4
2022-09-13T06:57:50.545Z,28.0
2022-09-13T07:02:50.987Z,28.9
2022-09-13T07:07:50.945Z,29.3
2022-09-13T07:12:50.598Z,29.0
2022-09-13T07:17:50.968Z,29.6
2022-09-13T07:22:50.448Z,28.6
2022-09-13T07:27:50.520Z,31.3
2022-09-13T07:32:50.682Z,32.2
2022-09-13T07:37:50.740Z,32.0
2022-09-13T07:42:51.028Z,32.3
2022-09-13T07:47:51.197Z,31.9
2022-09-13T07:52:50.635Z,32.1
2022-09-13T07:57:50.662Z,31.1
2022-09-13T08:02:50.400Z,30.5
2022-09-13T08:07:50.934Z,28.6
2022-09-13T08:12:50.427Z,26.4
2022-09-13T08:17:50.716Z,25.5
2022-09-13T08:22:50.314Z,24.3
2022-09-13T08:27:50.492Z,23.9
2022-09-13T08:32:50.357Z,23.4
2022-09-13T08:37:50.545Z,22.0
2022-09-13T08:42:50.487Z,21.9
2022-09-13T08:47:50.736Z,19.4
2022-09-13T08:52:50.553Z,17.1
2022-09-13T08:57:50.457Z,13.6
2022-09-13T09:02:50.417Z,8.7
2022-09-13T09:07:50.876Z,6.9
2022-09-13T09:12:50.774Z,5.1
2022-09-13T09:17:50.686Z,4.7
2022-09-13T09:22:50.556Z,4.6
2022-09-13T09:27:50.673Z,6.8
2022-09-13T09:32:50.598Z,4.7
2022-09-13T09:37:50.621Z,4.7
2022-09-13T09:42:50.372Z,4.3
2022-09-13T09:47:50.399Z,3.7
2022-09-13T09:52:50.475Z,3.3
2022-09-13T09:57:50.362Z,3.7
2022-09-13T10:02:50.290Z,3.6
2022-09-13T10:07:50.197Z,3.2
2022-09-13T10:12:50.433Z,3.4
2022-09-13T10:17:50.293Z,4.0
2022-09-13T10:22:50.177Z,3.3
2022-09-13T10:32:50.247Z,3.9
2022-09-13T10:37:50.550Z,5.6
2022-09-13T10:42:51.080Z,4.4
2022-09-13T10:47:50.212Z,3.9
2022-09-13T10:52:50.190Z,3.5
2022-09-13T10:57:50.482Z,4.9
2022-09-13T11:02:50.175Z,3.6
2022-09-13T11:07:50.318Z,4.4
2022-09-13T11:12:50.846Z,4.3
2022-09-13T11:17:50.185Z,3.5
2022-09-13T11:22:50.079Z,3.4
2022-09-13T11:27:50.593Z,2.6
2022-09-13T11:32:50.474Z,3.1
2022-09-13T11:42:50.474Z,3.2
2022-09-13T11:47:50.217Z,3.4
2022-09-13T11:52:50.228Z,2.8
2022-09-13T11:57:50.499Z,2.8
2022-09-13T12:02:50.774Z,2.7
2022-09-13T12:07:52.181Z,2.9
2022-09-13T12:12:51.318Z,3.0
2022-09-13T12:17:52.049Z,2.8
2022-09-13T12:22:49.984Z,2.9
2022-09-13T12:27:51.199Z,3.0
2022-09-13T12:32:50.003Z,3.1
2022-09-13T12:37:50.064Z,3.1
2022-09-13T12:42:50.602Z,2.9
2022-09-13T12:47:50.131Z,3.0
2022-09-13T12:52:50.215Z,3.3
2022-09-13T12:57:50.285Z,3.4
2022-09-13T13:02:54.278Z,3.2
2022-09-13T13:07:50.932Z,3.3
2022-09-13T13:12:50.758Z,3.3
2022-09-13T13:17:50.049Z,4.0
2022-09-13T13:22:50.016Z,3.6
2022-09-13T13:27:52.163Z,2.8
2022-09-13T13:37:50.296Z,3.3
2022-09-13T13:42:51.361Z,3.2
2022-09-13T13:47:51.695Z,3.3
2022-09-13T13:52:51.223Z,3.1
2022-09-13T13:57:49.900Z,3.5
2022-09-13T14:02:50.395Z,3.4
2022-09-13T14:12:50.214Z,4.5
2022-09-13T14:17:50.090Z,3.2
2022-09-13T14:22:51.154Z,2.9
2022-09-13T14:27:50.259Z,3.1
2022-09-13T14:32:50.943Z,3.1
2022-09-13T14:37:50.371Z,3.0
2022-09-13T14:42:49.874Z,4.1
2022-09-13T14:47:50.410Z,3.4
2022-09-13T14:52:54.227Z,2.9
2022-09-13T14:57:50.380Z,3.1
2022-09-13T15:02:50.161Z,3.5
2022-09-13T15:07:50.439Z,3.3
2022-09-13T15:12:50.741Z,3.3
2022-09-13T15:17:49.954Z,4.4
2022-09-13T15:22:49.880Z,3.1
2022-09-13T15:27:50.948Z,3.7
2022-09-13T15:32:50.085Z,3.9
2022-09-13T15:37:50.126Z,3.2
2022-09-13T15:42:50.307Z,3.4
2022-09-13T15:47:49.733Z,3.5
2022-09-13T15:52:49.758Z,3.9
2022-09-13T15:57:50.104Z,3.5
2022-09-13T16:02:49.864Z,3.3
2022-09-13T16:07:49.887Z,3.0
2022-09-13T16:12:50.559Z,3.4
2022-09-13T16:17:50.177Z,3.5
2022-09-13T16:22:49.666Z,3.5
2022-09-13T16:27:50.549Z,2.8
2022-09-13T16:32:50.373Z,3.4
2022-09-13T16:37:50.816Z,3.4
2022-09-13T16:42:51.289Z,3.7
2022-09-13T16:47:49.999Z,3.7
2022-09-13T16:52:49.711Z,3.8
2022-09-13T16:57:49.758Z,3.5
2022-09-13T17:02:49.806Z,3.5
2022-09-13T17:07:49.738Z,4.1
2022-09-13T17:12:50.615Z,3.8
2022-09-13T17:17:49.593Z,4.4
2022-09-13T17:22:49.883Z,4.4
2022-09-13T17:27:50.080Z,4.7
2022-09-13T17:32:49.741Z,5.7
2022-09-13T17:42:50.685Z,4.7
2022-09-13T17:47:49.612Z,5.1
2022-09-13T17:52:49.705Z,5.0
2022-09-13T17:57:50.267Z,5.7
2022-09-13T18:02:49.980Z,5.9
2022-09-13T18:07:49.615Z,5.4
2022-09-13T18:12:49.639Z,5.4
2022-09-13T18:17:49.648Z,5.0
2022-09-13T18:22:49.857Z,5.2
2022-09-13T18:27:50.021Z,4.5
2022-09-13T18:32:49.631Z,5.0
2022-09-13T18:37:49.567Z,4.6
2022-09-13T18:42:50.609Z,4.6
2022-09-13T18:47:49.638Z,4.5
2022-09-13T18:52:53.285Z,5.8
2022-09-13T18:57:49.508Z,5.7
2022-09-13T19:03:10.857Z,5.5
2022-09-13T19:07:50.100Z,5.6
2022-09-13T19:12:49.506Z,7.4
2022-09-13T19:17:49.682Z,5.4
2022-09-13T19:22:49.738Z,5.6
2022-09-13T19:27:51.817Z,5.1
2022-09-13T19:32:50.219Z,5.3
2022-09-13T19:37:49.660Z,5.4
2022-09-13T19:42:49.382Z,5.8
2022-09-13T19:52:49.451Z,7.9
2022-09-13T19:57:50.518Z,7.2
2022-09-13T20:02:49.407Z,8.7
2022-09-13T20:07:49.271Z,5.5
2022-09-13T20:12:49.341Z,6.7
2022-09-13T20:17:49.265Z,7.7
2022-09-13T20:22:49.545Z,7.1
2022-09-13T20:27:49.424Z,6.4
2022-09-13T20:32:49.371Z,6.6
2022-09-13T20:37:49.367Z,6.7
2022-09-13T20:42:49.363Z,6.3
2022-09-13T20:47:49.562Z,6.4
2022-09-13T20:52:49.325Z,6.0
2022-09-13T20:57:49.365Z,6.0
2022-09-13T21:02:49.688Z,5.8
2022-09-13T21:07:49.262Z,6.6
2022-09-13T21:12:49.491Z,5.4
2022-09-13T21:17:49.487Z,5.9
2022-09-13T21:22:49.198Z,6.0
2022-09-13T21:27:49.305Z,6.1
2022-09-13T21:32:49.361Z,19.9
2022-09-13T21:37:49.201Z,6.4
2022-09-13T21:42:49.395Z,6.0
2022-09-13T21:47:49.420Z,6.4
2022-09-13T21:52:49.189Z,5.4
2022-09-13T21:57:49.148Z,6.0
2022-09-13T22:02:49.398Z,6.2
2022-09-13T22:07:49.113Z,5.8
2022-09-13T22:12:49.135Z,5.8
2022-09-13T22:17:49.213Z,6.2
2022-09-13T22:22:49.115Z,5.7
2022-09-13T22:27:49.110Z,8.4
2022-09-13T22:32:49.290Z,6.3
2022-09-13T22:37:49.082Z,6.0
2022-09-13T22:42:49.146Z,6.2
2022-09-13T22:47:49.099Z,6.0
2022-09-13T22:52:49.384Z,6.4
2022-09-13T22:57:49.407Z,7.5
2022-09-13T23:02:49.184Z,10.8
2022-09-13T23:07:49.034Z,7.5
2022-09-13T23:12:49.089Z,6.5
2022-09-13T23:17:49.333Z,7.1
2022-09-13T23:22:49.206Z,7.5
2022-09-13T23:27:49.039Z,6.9
2022-09-13T23:32:48.986Z,7.4
2022-09-13T23:37:49.146Z,6.6
2022-09-13T23:42:49.052Z,6.6
2022-09-13T23:47:49.002Z,6.4
2022-09-13T23:52:49.143Z,6.5
2022-09-13T23:57:49.022Z,6.5
